Time;durP1;ratioP1;P1;durP2;ratioP2;P2;SDS_P1;SDS_P2;PMS_P1;PMS_P2;Temp;Humidity;BMP_temperature;BMP_pressure;BME280_temperature;BME280_humidity;BME280_pressure;Samples;Min_cycle;Max_cycle;Signal;HPM_P1;HPM_P2
2021/08/29 00:01:27;;;;;;;4.30;3.90;;;;;;;16.13;72.98;100758.44;5026683;28;20029;-48
2021/08/29 00:03:53;;;;;;;3.65;3.35;;;;;;;16.13;73.14;100761.09;5029515;28;20033;-48
2021/08/29 00:06:18;;;;;;;3.50;3.20;;;;;;;16.13;72.99;100761.09;5025632;28;20024;-48
2021/08/29 00:08:44;;;;;;;4.10;3.70;;;;;;;16.12;73.08;100767.34;5025261;28;20112;-48
2021/08/29 00:11:10;;;;;;;4.00;3.60;;;;;;;16.09;73.06;100754.13;5026889;28;20400;-48
2021/08/29 00:13:36;;;;;;;4.35;3.53;;;;;;;16.12;73.12;100764.69;5027109;28;20017;-47
2021/08/29 00:16:02;;;;;;;4.53;4.10;;;;;;;16.10;73.00;100754.06;5027906;28;20443;-47
2021/08/29 00:18:27;;;;;;;4.28;3.88;;;;;;;16.10;73.13;100759.41;5029565;28;20031;-47
2021/08/29 00:20:53;;;;;;;4.72;4.32;;;;;;;16.12;73.23;100756.69;5027077;28;20416;-48
2021/08/29 00:23:19;;;;;;;4.57;4.18;;;;;;;16.13;73.24;100758.44;5010422;28;20022;-47
2021/08/29 00:25:45;;;;;;;4.63;4.22;;;;;;;16.13;73.19;100754.00;5027497;28;20390;-48
2021/08/29 00:28:11;;;;;;;4.43;4.03;;;;;;;16.12;73.52;100751.38;5025173;28;20573;-48
2021/08/29 00:30:36;;;;;;;4.63;4.30;;;;;;;16.13;73.35;100758.44;5026717;28;20025;-48
2021/08/29 00:33:02;;;;;;;4.78;4.38;;;;;;;16.14;73.42;100744.22;5011436;28;20021;-48
2021/08/29 00:35:29;;;;;;;5.85;5.25;;;;;;;16.11;73.35;100741.66;5028929;28;20535;-48
2021/08/29 00:37:55;;;;;;;4.95;4.55;;;;;;;16.11;73.39;100755.81;5028384;28;20033;-48
2021/08/29 00:40:20;;;;;;;4.97;4.53;;;;;;;16.15;73.11;100752.13;5023484;28;20029;-48
2021/08/29 00:42:50;;;;;;;5.63;5.03;;;;;;;16.16;72.86;100748.56;5024218;28;20096;-47
2021/08/29 00:45:26;;;;;;;5.63;5.07;;;;;;;16.15;73.22;100748.63;5028348;28;20029;-47
2021/08/29 00:47:52;;;;;;;5.13;4.68;;;;;;;16.13;73.24;100748.66;5027272;28;20026;-48
2021/08/29 00:50:18;;;;;;;5.43;4.93;;;;;;;16.13;72.69;100745.13;5014962;28;20026;-47
2021/08/29 00:52:43;;;;;;;5.50;4.93;;;;;;;16.14;73.17;100745.09;5032972;28;20449;-48
2021/08/29 00:55:10;;;;;;;4.88;4.47;;;;;;;16.12;73.33;100741.63;5027317;28;20034;-48
2021/08/29 00:57:38;;;;;;;4.82;4.32;;;;;;;16.13;73.21;100742.47;5026229;28;20065;-48
2021/08/29 01:00:05;;;;;;;5.47;4.97;;;;;;;16.13;73.26;100739.81;5029925;28;20025;-48
2021/08/29 01:02:31;;;;;;;4.72;4.25;;;;;;;16.13;73.14;100737.16;5012032;28;20022;-48
2021/08/29 01:05:03;;;;;;;5.53;5.03;;;;;;;16.13;73.42;100731.81;5015135;28;20021;-48
2021/08/29 01:08:06;;;;;;;5.78;4.78;;;;;;;16.13;73.14;100739.81;5011823;28;20033;-48
2021/08/29 01:10:34;;;;;;;5.10;4.60;;;;;;;16.12;73.38;100743.41;4957228;28;20034;-48
2021/08/29 01:13:00;;;;;;;4.90;4.43;;;;;;;16.13;73.33;100737.16;4991363;28;20187;-48
2021/08/29 01:15:28;;;;;;;5.40;4.90;;;;;;;16.12;73.33;100738.97;5029233;28;20013;-48
2021/08/29 01:17:56;;;;;;;5.10;4.43;;;;;;;16.10;73.25;100734.56;5032214;28;20021;-48
2021/08/29 01:20:25;;;;;;;4.68;4.25;;;;;;;16.12;73.32;100738.06;5011026;28;20048;-48
2021/08/29 01:22:52;;;;;;;4.50;4.10;;;;;;;16.11;73.26;100736.34;5032457;28;20013;-48
2021/08/29 01:25:22;;;;;;;4.88;4.38;;;;;;;16.10;73.20;100735.47;5032348;28;20047;-49
2021/08/29 01:27:56;;;;;;;4.80;4.40;;;;;;;16.12;73.47;100741.63;5014686;28;20029;-47
2021/08/29 01:30:22;;;;;;;5.10;4.60;;;;;;;16.11;73.42;100745.16;5012050;28;20029;-48
2021/08/29 01:32:49;;;;;;;4.82;4.32;;;;;;;16.10;73.57;100745.22;5028359;28;20018;-48
2021/08/29 01:35:15;;;;;;;4.88;4.47;;;;;;;16.10;73.54;100732.78;5012329;28;20029;-48
2021/08/29 01:37:42;;;;;;;5.05;4.03;;;;;;;16.10;73.56;100738.13;5013608;28;20013;-48
2021/08/29 01:40:09;;;;;;;4.07;3.78;;;;;;;16.10;73.49;100743.44;5027706;28;20548;-48
2021/08/29 01:42:35;;;;;;;4.88;4.43;;;;;;;16.10;73.78;100742.56;5009318;28;20021;-48
2021/08/29 01:45:01;;;;;;;4.72;4.32;;;;;;;16.12;73.59;100746.06;5011151;28;20021;-48
2021/08/29 01:47:27;;;;;;;4.45;4.05;;;;;;;16.11;73.55;100739.84;5011151;28;20079;-48
2021/08/29 01:49:53;;;;;;;4.45;4.05;;;;;;;16.10;73.55;100738.13;5031053;28;20021;-48
2021/08/29 01:52:19;;;;;;;4.38;4.00;;;;;;;16.10;73.66;100743.44;5032006;28;20026;-48
2021/08/29 01:54:44;;;;;;;4.55;4.15;;;;;;;16.09;73.69;100740.81;5028572;28;20504;-48
2021/08/29 01:57:13;;;;;;;4.75;3.90;;;;;;;16.08;73.65;100733.78;5031445;28;20037;-48
2021/08/29 01:59:43;;;;;;;4.32;3.92;;;;;;;16.09;73.73;100736.38;5031478;28;20025;-48
2021/08/29 02:02:13;;;;;;;4.53;4.13;;;;;;;16.09;73.50;100730.19;5031624;28;20060;-48
2021/08/29 02:04:41;;;;;;;4.50;4.10;;;;;;;16.10;73.59;100727.47;5010804;28;20389;-48
2021/08/29 02:07:09;;;;;;;4.30;3.95;;;;;;;16.10;73.48;100731.91;5005700;28;20435;-48
2021/08/29 02:09:37;;;;;;;4.22;3.80;;;;;;;16.10;73.61;100734.56;5029807;28;20038;-48
2021/08/29 02:12:03;;;;;;;5.00;4.22;;;;;;;16.09;73.74;100730.19;5009978;28;20026;-48
2021/08/29 02:14:35;;;;;;;4.40;3.97;;;;;;;16.09;73.59;100731.06;5029539;28;20385;-48
2021/08/29 02:17:02;;;;;;;4.38;4.00;;;;;;;16.11;73.55;100723.88;5031369;28;20022;-48
2021/08/29 02:19:31;;;;;;;4.65;4.25;;;;;;;16.09;73.79;100719.53;5027640;28;20401;-47
2021/08/29 02:21:57;;;;;;;4.63;4.22;;;;;;;16.12;73.43;100724.78;5023358;28;20025;-47
2021/08/29 02:24:27;;;;;;;3.75;3.45;;;;;;;16.09;73.24;100715.09;5010962;28;20099;-48
2021/08/29 02:26:53;;;;;;;3.95;3.65;;;;;;;16.09;73.58;100717.75;5008157;28;20021;-48
2021/08/29 02:29:19;;;;;;;5.57;4.30;;;;;;;16.10;73.67;100723.94;5025440;28;20033;-48
2021/08/29 02:31:46;;;;;;;4.70;4.30;;;;;;;16.09;73.84;100719.53;5012689;28;20511;-48
2021/08/29 02:34:12;;;;;;;3.83;3.53;;;;;;;16.09;73.74;100717.75;5010885;28;20037;-48
2021/08/29 02:36:39;;;;;;;5.35;4.30;;;;;;;16.09;73.73;100724.84;5012327;28;20394;-48
2021/08/29 02:39:06;;;;;;;4.90;4.03;;;;;;;16.10;73.30;100722.16;5004270;28;20040;-48
2021/08/29 02:41:32;;;;;;;5.90;3.97;;;;;;;16.12;73.66;100725.66;5006227;28;20075;-48
2021/08/29 02:43:58;;;;;;;4.35;3.95;;;;;;;16.13;73.09;100715.84;5025520;28;20013;-48
2021/08/29 02:46:24;;;;;;;4.50;4.10;;;;;;;16.11;73.28;100710.59;5029331;28;20388;-48
2021/08/29 02:48:50;;;;;;;4.30;3.90;;;;;;;16.11;73.61;100713.25;5003745;28;20100;-48
2021/08/29 02:51:17;;;;;;;4.20;3.80;;;;;;;16.10;73.48;100713.28;5004014;28;20509;-48
2021/08/29 02:53:43;;;;;;;4.43;3.83;;;;;;;16.12;73.25;100712.34;5027283;28;20057;-48
2021/08/29 02:56:09;;;;;;;3.90;3.60;;;;;;;16.13;73.33;100713.19;5025230;28;20076;-48
2021/08/29 02:58:36;;;;;;;4.70;4.30;;;;;;;16.12;73.33;100706.16;5024595;28;20076;-48
2021/08/29 03:01:02;;;;;;;4.15;3.70;;;;;;;16.11;73.45;100710.59;5028841;28;20033;-48
2021/08/29 03:03:28;;;;;;;4.40;4.00;;;;;;;16.11;73.47;100721.22;5028449;28;20014;-48
2021/08/29 03:05:54;;;;;;;4.03;3.63;;;;;;;16.13;73.42;100723.84;5025061;28;20048;-48
2021/08/29 03:08:20;;;;;;;4.10;3.70;;;;;;;16.11;73.19;100713.25;5027301;28;20021;-48
2021/08/29 03:10:46;;;;;;;4.40;4.00;;;;;;;16.13;73.13;100716.75;5024930;28;20025;-48
2021/08/29 03:13:14;;;;;;;4.85;4.45;;;;;;;16.14;73.24;100720.28;5004813;28;20065;-48
2021/08/29 03:15:40;;;;;;;4.38;3.97;;;;;;;16.13;73.45;100713.19;5009066;28;20025;-49
2021/08/29 03:18:05;;;;;;;4.15;3.75;;;;;;;16.11;73.50;100717.72;5027321;28;20090;-48
2021/08/29 03:20:31;;;;;;;3.72;3.42;;;;;;;16.11;73.15;100718.56;5003357;28;20112;-48
2021/08/29 03:22:58;;;;;;;3.92;3.63;;;;;;;16.09;73.19;100711.56;5016180;28;20238;-48
2021/08/29 03:25:24;;;;;;;4.05;3.75;;;;;;;16.10;73.29;100708.84;5025604;28;20264;-48
2021/08/29 03:27:50;;;;;;;3.90;3.60;;;;;;;16.13;73.15;100710.53;5027163;28;20032;-48
2021/08/29 03:30:15;;;;;;;4.03;3.63;;;;;;;16.12;73.28;100714.13;5024077;28;20112;-48
2021/08/29 03:32:44;;;;;;;4.53;3.20;;;;;;;16.11;73.32;100707.94;5024731;28;20106;-48
2021/08/29 03:35:12;;;;;;;4.05;3.65;;;;;;;16.09;73.51;100712.44;5027017;28;20378;-48
2021/08/29 03:37:39;;;;;;;4.35;3.97;;;;;;;16.12;73.35;100706.16;5022598;28;20021;-48
2021/08/29 03:40:06;;;;;;;3.63;3.33;;;;;;;16.11;73.32;100705.25;5027144;28;20090;-48
2021/08/29 03:42:33;;;;;;;3.72;3.42;;;;;;;16.11;73.32;100704.41;5021897;28;20063;-48
2021/08/29 03:45:00;;;;;;;4.50;3.92;;;;;;;16.11;73.30;100701.75;5025198;28;20071;-48
2021/08/29 03:47:26;;;;;;;6.03;3.65;;;;;;;16.12;73.33;100711.47;5026251;28;20037;-48
2021/08/29 03:49:52;;;;;;;5.50;3.40;;;;;;;16.11;73.28;100715.91;5021934;28;20021;-48
2021/08/29 03:52:18;;;;;;;3.80;3.50;;;;;;;16.12;73.01;100709.69;5021057;28;20025;-48
2021/08/29 03:54:45;;;;;;;4.20;3.85;;;;;;;16.12;73.23;100719.44;5026596;28;20366;-47
2021/08/29 03:57:11;;;;;;;4.18;3.88;;;;;;;16.11;73.27;100709.72;5029791;28;20476;-48
2021/08/29 03:59:37;;;;;;;4.22;3.83;;;;;;;16.12;73.10;100698.16;5007687;28;20049;-48
2021/08/29 04:02:04;;;;;;;3.92;3.63;;;;;;;16.13;73.05;100705.22;5025379;28;20018;-48
2021/08/29 04:04:31;;;;;;;3.97;3.67;;;;;;;16.12;73.00;100703.50;5010878;28;20493;-48
2021/08/29 04:06:59;;;;;;;4.22;3.92;;;;;;;16.10;73.16;100700.00;5026790;28;20025;-47
2021/08/29 04:09:25;;;;;;;4.57;4.03;;;;;;;16.12;73.33;100703.50;5028729;28;20025;-48
2021/08/29 04:11:52;;;;;;;4.00;3.60;;;;;;;16.12;73.07;100703.50;5029191;28;20025;-48
2021/08/29 04:14:18;;;;;;;4.57;4.18;;;;;;;16.09;73.01;100696.47;5026393;28;20393;-48
2021/08/29 04:16:44;;;;;;;4.00;3.70;;;;;;;16.09;72.99;100703.56;5029608;28;20025;-48
2021/08/29 04:19:10;;;;;;;4.35;3.95;;;;;;;16.12;73.13;100714.13;4997915;28;20744;-48
2021/08/29 04:21:36;;;;;;;4.68;4.25;;;;;;;16.11;73.21;100701.75;4996918;28;20068;-48
2021/08/29 04:24:02;;;;;;;4.50;3.60;;;;;;;16.09;73.39;100695.59;5033156;28;20028;-48
2021/08/29 04:26:28;;;;;;;4.97;4.47;;;;;;;16.07;73.31;100690.31;5033446;28;20024;-48
2021/08/29 04:28:54;;;;;;;4.75;4.25;;;;;;;16.08;73.17;100693.88;5012149;28;20026;-47
2021/08/29 04:31:28;;;;;;;4.38;3.97;;;;;;;16.09;73.39;100700.91;5024930;28;20355;-48
2021/08/29 04:33:53;;;;;;;4.32;3.92;;;;;;;16.12;73.20;100704.38;5029025;28;20051;-48
2021/08/29 04:36:19;;;;;;;3.95;3.55;;;;;;;16.10;73.23;100694.66;5030377;28;20489;-48
2021/08/29 04:38:45;;;;;;;4.93;4.38;;;;;;;16.09;73.24;100695.59;5029457;28;20070;-48
2021/08/29 04:41:11;;;;;;;3.78;3.47;;;;;;;16.11;73.11;100693.78;5011017;28;20076;-48
2021/08/29 04:43:37;;;;;;;4.45;4.05;;;;;;;16.08;73.21;100701.84;5032040;28;20029;-49
2021/08/29 04:46:04;;;;;;;3.88;3.58;;;;;;;16.09;73.31;100703.56;5027595;28;20027;-47
2021/08/29 04:48:30;;;;;;;4.20;3.90;;;;;;;16.09;73.07;100707.13;5011793;28;20072;-48
2021/08/29 04:50:56;;;;;;;4.22;3.83;;;;;;;16.10;73.46;100700.88;5003176;28;20025;-48
2021/08/29 04:53:22;;;;;;;4.18;3.78;;;;;;;16.10;73.11;100694.66;5015014;28;20365;-48
2021/08/29 04:55:48;;;;;;;4.30;3.90;;;;;;;16.08;73.14;100696.53;5029770;28;20030;-48
2021/08/29 04:58:14;;;;;;;4.55;4.13;;;;;;;16.08;73.35;100693.88;5032812;28;20033;-48
2021/08/29 05:00:39;;;;;;;4.15;3.85;;;;;;;16.09;73.08;100699.13;5027400;28;20072;-48
2021/08/29 05:03:05;;;;;;;4.55;4.15;;;;;;;16.07;73.21;100700.97;5010324;28;20022;-48
2021/08/29 05:05:31;;;;;;;3.92;3.55;;;;;;;16.09;72.91;100704.47;5032425;28;20029;-48
2021/08/29 05:07:57;;;;;;;4.10;3.72;;;;;;;16.09;73.04;100698.25;5031428;28;20022;-48
2021/08/29 05:10:23;;;;;;;4.53;4.13;;;;;;;16.09;72.96;100700.91;5029821;28;20026;-48
2021/08/29 05:12:48;;;;;;;4.05;3.65;;;;;;;16.09;73.24;100698.25;5029809;28;20038;-48
2021/08/29 05:15:14;;;;;;;4.25;3.92;;;;;;;16.07;73.29;100700.13;5030329;28;20099;-48
2021/08/29 05:17:40;;;;;;;3.85;3.55;;;;;;;16.09;73.05;100703.56;5031962;28;20108;-48
2021/08/29 05:20:06;;;;;;;4.25;3.85;;;;;;;16.10;73.27;100710.63;5032600;28;20112;-49
2021/08/29 05:22:32;;;;;;;4.40;4.00;;;;;;;16.09;72.83;100703.56;5031529;28;20481;-48
2021/08/29 05:24:57;;;;;;;5.68;3.85;;;;;;;16.10;73.10;100702.66;5031109;28;20021;-48
2021/08/29 05:27:23;;;;;;;4.35;3.95;;;;;;;16.10;73.05;100705.31;5030654;28;20029;-48
2021/08/29 05:29:49;;;;;;;4.20;3.80;;;;;;;16.07;72.96;100706.28;5026901;28;20378;-48
2021/08/29 05:32:15;;;;;;;4.25;3.80;;;;;;;16.08;72.96;100708.03;5006962;28;20029;-48
2021/08/29 05:34:41;;;;;;;4.03;3.72;;;;;;;16.07;73.38;100708.94;5012970;28;20037;-48
2021/08/29 05:37:06;;;;;;;4.43;4.03;;;;;;;16.06;73.05;100703.66;5027991;28;20037;-48
2021/08/29 05:39:32;;;;;;;4.30;3.90;;;;;;;16.05;73.09;100701.94;5030438;28;20483;-48
2021/08/29 05:41:58;;;;;;;4.57;4.18;;;;;;;16.07;73.11;100705.44;5029792;28;20443;-48
2021/08/29 05:44:24;;;;;;;4.72;3.97;;;;;;;16.07;72.99;100710.75;5011130;28;20044;-48
2021/08/29 05:46:49;;;;;;;3.88;3.55;;;;;;;16.07;73.17;100705.44;5031335;28;20104;-48
2021/08/29 05:49:15;;;;;;;4.47;4.07;;;;;;;16.08;73.00;100712.47;5010994;28;20046;-48
2021/08/29 05:51:41;;;;;;;4.72;4.32;;;;;;;16.06;73.09;100704.56;5026179;28;20044;-48
2021/08/29 05:54:07;;;;;;;4.72;4.22;;;;;;;16.07;73.11;100708.09;5029550;28;20017;-48
2021/08/29 05:56:33;;;;;;;4.68;4.18;;;;;;;16.07;72.94;100700.13;5033626;28;20025;-48
2021/08/29 05:58:58;;;;;;;3.88;3.47;;;;;;;16.06;73.17;100703.66;5028983;28;20025;-48
2021/08/29 06:01:24;;;;;;;4.78;4.05;;;;;;;16.06;73.10;100701.00;5031980;28;20045;-48
2021/08/29 06:03:50;;;;;;;5.03;4.30;;;;;;;16.05;73.14;100699.28;5029629;28;20036;-48
2021/08/29 06:06:16;;;;;;;5.45;4.68;;;;;;;16.06;73.14;100696.56;5027948;28;20028;-48
2021/08/29 06:08:41;;;;;;;4.15;3.75;;;;;;;16.05;73.11;100692.19;5029949;28;20120;-48
2021/08/29 06:11:08;;;;;;;4.30;3.90;;;;;;;16.07;73.11;100689.47;5013195;28;20036;-48
2021/08/29 06:13:35;;;;;;;5.38;3.88;;;;;;;16.05;72.94;100692.19;5031314;28;20041;-48
2021/08/29 06:16:02;;;;;;;4.97;4.47;;;;;;;16.06;72.92;100693.91;5028472;28;20037;-48
2021/08/29 06:18:27;;;;;;;4.30;3.90;;;;;;;16.08;72.93;100693.88;5030296;28;20049;-48
2021/08/29 06:20:53;;;;;;;4.28;3.88;;;;;;;16.09;72.98;100692.94;5029842;28;20488;-48
2021/08/29 06:23:19;;;;;;;4.45;4.05;;;;;;;16.06;73.00;100693.03;5012132;28;20033;-48
2021/08/29 06:25:45;;;;;;;3.67;3.38;;;;;;;16.07;72.95;100694.78;4996643;28;20048;-48
2021/08/29 06:28:10;;;;;;;3.85;3.55;;;;;;;16.06;73.51;100696.56;5029011;28;20079;-48
2021/08/29 06:30:36;;;;;;;5.25;4.75;;;;;;;16.07;72.98;100678.84;5023850;28;20412;-48
2021/08/29 06:33:02;;;;;;;4.78;4.28;;;;;;;16.06;73.16;100688.59;5010025;28;20477;-47
2021/08/29 06:35:28;;;;;;;5.18;4.03;;;;;;;16.05;73.08;100684.19;5027693;28;20032;-48
2021/08/29 06:37:53;;;;;;;4.32;3.92;;;;;;;16.07;73.01;100684.16;5028207;28;20045;-48
2021/08/29 06:40:19;;;;;;;4.47;4.07;;;;;;;16.06;73.12;100687.72;5019777;28;20416;-48
2021/08/29 06:42:45;;;;;;;4.40;4.00;;;;;;;16.06;73.40;100683.28;5031175;28;20029;-48
2021/08/29 06:45:11;;;;;;;3.75;3.45;;;;;;;16.01;73.11;100675.44;5007122;28;20219;-48
2021/08/29 06:47:37;;;;;;;4.28;3.88;;;;;;;16.07;73.24;100678.84;5009361;28;20091;-48
2021/08/29 06:50:05;;;;;;;3.42;3.17;;;;;;;16.05;73.57;100676.22;5030154;28;20029;-48
2021/08/29 06:52:31;;;;;;;4.38;3.97;;;;;;;16.03;73.48;100673.59;5027862;28;20026;-48
2021/08/29 06:54:57;;;;;;;4.60;3.25;;;;;;;16.06;73.42;100671.75;5030907;28;20025;-48
2021/08/29 06:57:25;;;;;;;3.88;3.47;;;;;;;16.08;73.51;100675.25;5029925;28;20029;-48
2021/08/29 06:59:52;;;;;;;4.25;3.47;;;;;;;16.08;72.98;100680.56;5031175;28;20022;-48
2021/08/29 07:02:18;;;;;;;3.95;3.58;;;;;;;16.05;73.15;100670.00;5027891;28;20024;-48
2021/08/29 07:04:44;;;;;;;4.07;3.55;;;;;;;16.07;72.88;100676.16;5030678;28;20052;-47
2021/08/29 07:07:09;;;;;;;4.40;3.60;;;;;;;16.07;73.41;100674.34;5024029;28;21410;-48
2021/08/29 07:09:39;;;;;;;4.30;3.70;;;;;;;16.07;73.04;100661.06;5027089;28;20390;-48
2021/08/29 07:12:06;;;;;;;4.18;3.72;;;;;;;16.07;73.13;100665.53;5027419;28;20048;-48
2021/08/29 07:14:32;;;;;;;3.80;3.50;;;;;;;16.07;73.20;100668.19;5026640;28;20028;-47
2021/08/29 07:17:05;;;;;;;3.28;2.97;;;;;;;16.07;73.23;100674.34;5106478;27;20395;-47
2021/08/29 07:19:31;;;;;;;4.15;3.75;;;;;;;16.07;73.08;100670.84;5085208;28;20050;-48
2021/08/29 07:21:57;;;;;;;4.15;3.75;;;;;;;16.07;73.39;100678.84;5074467;28;20024;-47
2021/08/29 07:24:23;;;;;;;3.72;3.42;;;;;;;16.07;73.42;100678.84;5069646;28;20520;-47
2021/08/29 07:26:49;;;;;;;3.97;3.58;;;;;;;16.07;73.31;100670.84;5071503;28;20020;-48
2021/08/29 07:29:15;;;;;;;4.03;3.60;;;;;;;16.09;72.91;100671.66;5071525;28;20086;-47
2021/08/29 07:31:41;;;;;;;3.70;3.40;;;;;;;16.06;73.21;100664.66;5075980;28;20031;-47
2021/08/29 07:34:06;;;;;;;3.80;3.35;;;;;;;16.09;72.96;100672.53;5075733;28;20031;-47
2021/08/29 07:36:32;;;;;;;3.75;3.40;;;;;;;16.08;73.82;100672.59;5076769;28;20017;-48
2021/08/29 07:38:58;;;;;;;3.65;3.35;;;;;;;16.08;73.45;100680.56;5072700;28;20286;-47
2021/08/29 07:41:24;;;;;;;4.13;3.83;;;;;;;16.09;73.08;100676.97;5074903;28;20028;-47
2021/08/29 07:43:50;;;;;;;3.75;3.40;;;;;;;16.08;73.13;100677.91;5077459;28;20020;-48
2021/08/29 07:46:16;;;;;;;3.78;3.40;;;;;;;16.07;72.86;100677.03;5073534;28;20062;-47
2021/08/29 07:48:42;;;;;;;4.00;3.60;;;;;;;16.09;73.04;100679.63;5074642;28;20024;-47
2021/08/29 07:51:08;;;;;;;3.70;3.05;;;;;;;16.08;72.91;100676.13;5069744;28;20032;-48
2021/08/29 07:53:34;;;;;;;3.05;2.80;;;;;;;16.08;72.87;100675.25;5072724;28;20061;-50
2021/08/29 07:56:00;;;;;;;3.38;3.00;;;;;;;16.08;72.87;100680.56;5072383;28;20012;-47
2021/08/29 07:58:25;;;;;;;3.63;3.33;;;;;;;16.09;72.89;100676.97;5075262;28;20108;-47
2021/08/29 08:00:51;;;;;;;3.30;3.00;;;;;;;16.09;73.04;100679.63;5071492;28;20025;-48
2021/08/29 08:03:17;;;;;;;2.50;2.30;;;;;;;16.08;73.04;100677.91;5073006;28;20025;-48
2021/08/29 08:05:43;;;;;;;2.80;2.60;;;;;;;16.08;72.81;100680.56;5075663;28;20020;-48
2021/08/29 08:08:09;;;;;;;2.72;2.53;;;;;;;16.08;72.82;100675.25;5075347;28;20028;-47
2021/08/29 08:10:35;;;;;;;3.30;3.00;;;;;;;16.09;72.79;100675.19;5078140;28;20027;-48
2021/08/29 08:13:01;;;;;;;3.40;3.10;;;;;;;16.09;72.92;100674.31;5075439;28;20036;-47
2021/08/29 08:15:27;;;;;;;2.90;2.60;;;;;;;16.08;73.45;100669.91;5071957;28;20115;-48
2021/08/29 08:17:53;;;;;;;3.42;3.13;;;;;;;16.09;72.78;100676.97;5074748;28;20081;-48
2021/08/29 08:20:19;;;;;;;2.92;2.72;;;;;;;16.08;72.76;100672.59;5071134;28;20059;-47
2021/08/29 08:22:47;;;;;;;3.15;2.92;;;;;;;16.08;72.61;100669.91;5073465;28;20027;-47
2021/08/29 08:25:13;;;;;;;3.08;2.78;;;;;;;16.08;72.93;100676.13;5073171;28;20016;-48
2021/08/29 08:27:39;;;;;;;3.13;2.85;;;;;;;16.10;73.06;100673.38;5064604;28;20048;-47
2021/08/29 08:30:05;;;;;;;2.55;2.35;;;;;;;16.09;73.01;100675.19;5059701;28;20039;-47
2021/08/29 08:32:31;;;;;;;3.08;2.65;;;;;;;16.11;73.02;100680.47;5062015;28;20025;-47
2021/08/29 08:34:57;;;;;;;2.88;2.67;;;;;;;16.10;73.14;100684.03;5061468;28;20054;-48
2021/08/29 08:37:23;;;;;;;2.90;2.70;;;;;;;16.10;73.16;100679.59;5063775;28;20036;-47
2021/08/29 08:39:49;;;;;;;3.33;2.97;;;;;;;16.12;73.14;100679.53;5058868;28;20020;-48
2021/08/29 08:42:15;;;;;;;2.72;2.50;;;;;;;16.09;73.01;100669.00;5060690;28;20025;-48
2021/08/29 08:44:43;;;;;;;2.72;2.53;;;;;;;16.09;73.09;100676.97;5060883;28;20060;-48
2021/08/29 08:47:11;;;;;;;2.50;2.30;;;;;;;16.10;73.13;100678.72;5055991;28;20023;-47
2021/08/29 08:49:37;;;;;;;3.28;2.80;;;;;;;16.10;73.28;100681.38;5063496;28;20024;-48
2021/08/29 08:52:09;;;;;;;2.40;2.20;;;;;;;16.12;73.16;100687.53;5057006;28;20044;-48
2021/08/29 08:54:37;;;;;;;2.97;2.65;;;;;;;16.10;73.28;100673.38;5056597;28;20016;-47
2021/08/29 08:57:02;;;;;;;2.58;2.38;;;;;;;16.09;72.86;100677.84;5043938;23;20042;-49
2021/08/29 08:59:30;;;;;;;2.58;2.38;;;;;;;16.11;73.21;100677.81;5041301;28;20025;-47
2021/08/29 09:01:59;;;;;;;2.50;2.30;;;;;;;16.12;72.81;100682.19;5042327;28;20044;-48
2021/08/29 09:04:24;;;;;;;2.50;2.30;;;;;;;16.13;73.09;100686.59;5035646;28;20541;-46
2021/08/29 09:06:50;;;;;;;2.25;2.05;;;;;;;16.12;73.02;100687.53;5037810;28;20029;-48
2021/08/29 09:09:16;;;;;;;2.30;2.20;;;;;;;16.12;73.27;100687.53;5035281;28;20064;-48
2021/08/29 09:11:42;;;;;;;2.72;2.53;;;;;;;16.10;73.00;100679.59;5035382;28;20057;-48
2021/08/29 09:14:08;;;;;;;3.03;2.63;;;;;;;16.10;72.92;100684.91;5040361;28;20063;-48
2021/08/29 09:16:34;;;;;;;2.10;2.00;;;;;;;16.12;72.98;100679.53;5017807;28;20162;-48
2021/08/29 09:19:02;;;;;;;2.88;2.60;;;;;;;16.13;72.44;100678.63;5037738;28;20510;-48
2021/08/29 09:21:31;;;;;;;1.95;1.80;;;;;;;16.12;72.61;100687.53;5035638;28;20045;-48
2021/08/29 09:23:59;;;;;;;2.35;2.15;;;;;;;16.13;72.80;100684.81;5037125;28;20031;-48
2021/08/29 09:26:27;;;;;;;2.30;2.10;;;;;;;16.10;72.56;100681.38;5031437;28;20025;-48
2021/08/29 09:28:57;;;;;;;3.10;2.65;;;;;;;16.14;72.56;100685.69;5045598;28;20017;-48
2021/08/29 09:31:23;;;;;;;1.87;1.73;;;;;;;16.13;72.83;100683.94;5030241;28;20113;-49
2021/08/29 09:34:03;;;;;;;2.40;2.20;;;;;;;16.12;72.45;100684.88;5051289;28;20029;-48
2021/08/29 09:36:33;;;;;;;2.72;2.10;;;;;;;16.13;72.80;100678.63;5039659;28;20112;-48
2021/08/29 09:39:31;;;;;;;2.67;2.47;;;;;;;16.14;72.39;100686.53;5031543;28;20032;-47
2021/08/29 09:42:04;;;;;;;2.90;2.20;;;;;;;16.14;72.69;100688.34;5007461;28;20319;-48
2021/08/29 09:44:34;;;;;;;2.35;2.15;;;;;;;16.14;72.68;100685.69;5031451;28;20045;-49
2021/08/29 09:47:04;;;;;;;2.20;2.00;;;;;;;16.13;72.52;100694.56;5031457;28;20029;-48
2021/08/29 09:49:35;;;;;;;2.33;2.13;;;;;;;16.12;72.49;100676.88;5031686;28;20499;-46
2021/08/29 09:52:04;;;;;;;2.03;1.92;;;;;;;16.13;72.56;100679.50;5031115;28;20029;-47
2021/08/29 09:54:43;;;;;;;2.15;1.95;;;;;;;16.15;72.27;100695.41;5029234;28;20076;-47
2021/08/29 09:57:12;;;;;;;2.30;2.10;;;;;;;16.15;72.62;100692.75;5030505;28;20120;-47
2021/08/29 09:59:46;;;;;;;2.20;2.00;;;;;;;16.15;72.52;100692.75;5029389;28;20022;-48
2021/08/29 10:02:33;;;;;;;2.60;2.40;;;;;;;16.15;72.71;100698.91;5030284;28;20136;-48
2021/08/29 10:05:18;;;;;;;1.73;1.63;;;;;;;16.15;72.47;100693.59;5029650;28;20048;-48
2021/08/29 10:08:00;;;;;;;2.42;2.00;;;;;;;16.15;72.42;100695.41;5029809;28;20471;-48
2021/08/29 10:10:28;;;;;;;2.33;2.10;;;;;;;16.14;72.66;100696.34;5029383;28;20037;-48
2021/08/29 10:12:54;;;;;;;2.25;1.85;;;;;;;16.15;72.81;100698.91;5030009;28;20029;-48
2021/08/29 10:15:20;;;;;;;1.95;1.85;;;;;;;16.15;73.06;100704.25;5029666;28;20025;-48
2021/08/29 10:17:47;;;;;;;1.90;1.80;;;;;;;16.14;72.69;100696.34;5031018;28;20402;-48
2021/08/29 10:20:15;;;;;;;2.20;2.00;;;;;;;16.15;72.63;100704.25;5031477;28;20128;-48
2021/08/29 10:22:41;;;;;;;3.80;2.10;;;;;;;16.14;72.51;100691.03;5029032;28;20040;-48
2021/08/29 10:25:09;;;;;;;2.30;2.10;;;;;;;16.16;72.51;100699.81;5029098;28;20036;-48
2021/08/29 10:27:39;;;;;;;1.90;1.75;;;;;;;16.15;72.93;100700.72;5032488;28;20022;-48
2021/08/29 10:30:08;;;;;;;2.55;2.35;;;;;;;16.16;72.88;100697.16;5028246;28;20021;-49
2021/08/29 10:32:35;;;;;;;2.28;2.10;;;;;;;16.16;72.90;100705.13;5033399;28;20351;-49
2021/08/29 10:35:08;;;;;;;2.30;2.10;;;;;;;16.15;72.58;100692.75;5031775;28;20033;-49
2021/08/29 10:37:42;;;;;;;2.03;1.83;;;;;;;16.16;72.94;100705.13;5030151;28;20013;-49
2021/08/29 10:40:09;;;;;;;1.85;1.73;;;;;;;16.15;73.13;100698.06;5031022;28;20180;-49
2021/08/29 10:42:40;;;;;;;2.10;1.95;;;;;;;16.17;73.08;100704.19;5031969;28;20021;-49
2021/08/29 10:45:07;;;;;;;3.13;2.03;;;;;;;16.15;73.68;100696.25;5030851;28;20104;-48
2021/08/29 10:47:33;;;;;;;2.67;1.90;;;;;;;16.15;73.58;100692.75;5030256;28;20028;-48
2021/08/29 10:50:03;;;;;;;2.60;1.92;;;;;;;16.14;73.25;100691.88;5032043;28;20395;-49
2021/08/29 10:52:30;;;;;;;2.10;1.90;;;;;;;16.17;73.40;100696.22;5039530;28;20031;-49
2021/08/29 10:55:01;;;;;;;1.85;1.75;;;;;;;16.16;73.57;100689.16;5038281;28;20267;-48
2021/08/29 10:57:31;;;;;;;2.65;2.45;;;;;;;16.16;73.16;100689.16;5032583;28;20490;-48
2021/08/29 11:00:08;;;;;;;2.53;2.35;;;;;;;16.18;73.59;100681.13;5030467;28;20025;-48
2021/08/29 11:02:51;;;;;;;1.85;1.67;;;;;;;16.17;73.56;100680.25;5035947;28;20017;-48
2021/08/29 11:05:42;;;;;;;2.17;1.98;;;;;;;16.15;73.33;100680.28;5036117;28;20048;-48
2021/08/29 11:08:26;;;;;;;2.17;1.90;;;;;;;16.15;73.75;100682.09;5033440;28;20451;-48
2021/08/29 11:10:52;;;;;;;1.70;1.58;;;;;;;16.17;73.63;100688.22;5033709;28;20029;-48
2021/08/29 11:13:28;;;;;;;1.90;1.80;;;;;;;16.18;73.69;100690.00;5030164;28;20063;-48
2021/08/29 11:16:14;;;;;;;2.17;2.00;;;;;;;16.18;73.53;100687.34;5028111;28;20057;-48
2021/08/29 11:18:58;;;;;;;2.35;2.15;;;;;;;16.14;74.06;100681.22;5030474;28;20035;-48
2021/08/29 11:21:37;;;;;;;2.60;2.40;;;;;;;16.17;73.42;100682.91;5027890;28;20021;-48
2021/08/29 11:24:04;;;;;;;2.22;2.10;;;;;;;16.14;73.71;100678.56;5029905;28;20029;-48
2021/08/29 11:26:41;;;;;;;2.55;2.17;;;;;;;16.17;72.88;100674.94;5028276;28;20017;-48